Latest Coastal Weather Observations for Warrnambool

IDV60701

Issued at 7:55 am EST Wednesday 3 September 2014 (issued every 10 minutes, with the page automatically refreshed every 10 minutes)

About coastal observations | Map of coastal stations | Coastal observations for VIC | Marine services | Other Formats
Station Details ID: 090186 Name: WARRNAMBOOL AIRPORT NDB Lat: -38.29 Lon: 142.45 Height: 70.8 m
Data from the previous 72 hours. | See also: Recent months at Warrnambool
Date/Time
EST
Temp

°C
Wind Pressure Rain
since 9am
mm
Weather Cloud Vis
km
Sea
Height
m
Swell
Dir
 
Speed
knots
Gust
knots
hPa Trend Height
m
Period
s
Dir
03/07:30am 6.8 NW 7 8 1024.5 - 2.2 - - - - - - -
03/07:00am 5.5 CALM 0 0 1024.4 - 2.2 - - - - - - -
03/06:30am 6.1 CALM 0 0 1024.2 - 2.2 - - - - - - -
03/06:00am 8.1 CALM 0 0 1024.0 - 2.2 - - - - - - -
03/05:30am 8.1 S 6 7 1023.9 - 2.2 - - - - - - -
03/05:00am 8.3 S 8 11 1023.8 - 2.2 - - - - - - -
03/04:30am 7.7 S 5 6 1023.9 - 2.2 - - - - - - -
03/04:00am 7.6 SSW 4 5 1024.0 - 2.2 - - - - - - -
03/03:30am 8.8 S 8 11 1024.1 - 2.2 - - - - - - -
03/03:00am 8.4 SSW 9 12 1024.2 - 2.2 - - - - - - -
03/02:30am 9.1 SSW 9 14 1024.6 - 2.2 - - - - - - -
03/02:00am 8.1 SSW 5 6 1024.9 - 2.2 - - - - - - -
03/01:30am 8.8 S 11 12 1025.0 - 2.2 - - - - - - -
03/01:00am 6.3 SSW 6 8 1025.0 - 2.2 - - - - - - -
03/12:30am 8.2 S 8 10 1025.2 - 2.2 - - - - - - -
03/12:00am 8.3 SSW 8 11 1025.2 - 2.2 - - - - - - -
 
Date/Time
EST
Temp

°C
Wind Pressure Rain
since 9am
mm
Weather Cloud Vis
km
Sea
Height
m
Swell
Dir
 
Speed
knots
Gust
knots
hPa Trend Height
m
Period
s
Dir
02/11:30pm 8.7 S 9 11 1025.2 - 2.2 - - - - - - -
02/11:00pm 9.0 S 8 13 1025.2 - 2.2 - - - - - - -
02/10:30pm 8.9 S 8 10 1025.2 - 2.2 - - - - - - -
02/10:00pm 8.5 WSW 3 4 1025.2 - 2.2 - - - - - - -
02/09:30pm 8.3 S 5 6 1025.2 - 2.2 - - - - - - -
02/09:00pm 8.4 SSW 9 12 1025.1 - 2.2 - - - - - - -
02/08:30pm 8.8 S 10 12 1025.1 - 2.2 - - - - - - -
02/08:00pm 9.0 SW 6 11 1024.9 - 2.2 - - - - - - -
02/07:30pm 8.3 SSW 4 5 1024.7 - 2.2 - - - - - - -
02/07:00pm 8.4 SSE 10 13 1024.5 - 1.4 - - - - - - -
02/06:30pm 8.1 SW 7 8 1024.2 - 1.2 - - - - - - -
02/06:00pm 8.6 S 8 11 1023.9 - 1.0 Recent precip. - - - - - -
02/05:30pm 9.5 S 8 10 1023.7 - 1.0 - - - - - - -
02/05:00pm 11.0 S 11 16 1023.3 - 0.0 - - - - - - -
02/04:30pm 11.4 SSW 13 17 1023.0 - 0.0 - - - - - - -
02/04:00pm 12.3 SSW 13 17 1022.8 - 0.0 - - - - - - -
02/03:30pm 12.5 SSW 15 20 1022.7 - 0.0 - - - - - - -
02/03:00pm 11.9 SSW 15 20 1022.5 - 0.0 - - - - - - -
02/02:30pm 12.8 SSW 16 21 1022.2 - 0.0 - - - - - - -
02/02:00pm 12.0 SSW 16 21 1022.1 - 0.0 - - - - - - -
02/01:30pm 12.5 S 15 21 1022.1 - 0.0 - - - - - - -
02/01:00pm 12.7 SSW 16 22 1022.2 - 0.0 - - - - - - -
02/12:30pm 12.8 SSW 15 20 1022.4 - 0.0 - - - - - - -
02/12:00pm 13.1 S 16 20 1022.4 - 0.0 - - - - - - -
02/11:30am 12.4 SSW 16 20 1022.4 - 0.0 - - - - - - -
02/11:00am 12.3 SSW 17 24 1022.3 - 0.0 - - - - - - -
02/10:30am 12.0 S 16 20 1022.2 - 0.0 - - - - - - -
02/10:00am 11.8 S 19 24 1022.0 - 0.0 - - - - - - -
02/09:30am 11.7 S 17 22 1021.6 - 0.0 - - - - - - -
02/09:00am 11.1 SSW 14 18 1021.3 - 5.4 - - - - - - -
02/08:30am 9.6 S 10 15 1021.0 - 5.4 - - - - - - -
02/08:00am 9.4 SSW 12 14 1020.4 - 5.4 - - - - - - -
02/07:30am 8.9 SSW 15 20 1019.9 - 5.4 - - - - - - -
02/07:00am 9.3 SSW 13 17 1019.4 - 5.0 - - - - - - -
02/06:30am 9.1 S 13 18 1018.8 - 5.0 - - - - - - -
02/06:00am 8.4 SSW 12 14 1018.2 - 5.0 - - - - - - -
02/05:30am 7.8 SSW 10 12 1017.9 - 5.0 - - - - - - -
02/05:00am 8.1 S 10 12 1017.5 - 5.0 - - - - - - -
02/04:30am 8.0 SSW 11 15 1017.0 - 5.0 - - - - - - -
02/04:00am 8.7 S 11 13 1016.7 - 5.0 - - - - - - -
02/03:30am 8.9 S 13 16 1016.5 - 5.0 - - - - - - -
02/03:00am 9.1 S 11 15 1016.1 - 5.0 Recent precip. - - - - - -
02/02:30am 8.6 SSW 8 10 1015.9 - 4.8 - - - - - - -
02/02:00am 8.9 SSW 16 21 1015.8 - 4.6 - - - - - - -
02/01:53am 8.9 SSW 15 19 1015.8 - 4.0 - - - - - - -
02/01:30am 8.7 WSW 6 8 1015.7 - 3.2 - - - - - - -
02/01:00am 8.5 SSW 5 7 1015.2 - 3.2 - - - - - - -
02/12:30am 9.0 WSW 5 7 1015.0 - 1.2 - - - - - - -
02/12:00am 8.9 SW 6 8 1014.9 - 1.2 - - - - - - -
 
Date/Time
EST
Temp

°C
Wind Pressure Rain
since 9am
mm
Weather Cloud Vis
km
Sea
Height
m
Swell
Dir
 
Speed
knots
Gust
knots
hPa Trend Height
m
Period
s
Dir
01/11:30pm 8.6 WNW 5 7 1014.7 - 1.2 - - - - - - -
01/11:00pm 8.7 S 8 13 1014.6 - 1.2 - - - - - - -
01/10:30pm 8.7 W 8 11 1014.1 - 0.6 - - - - - - -
01/10:00pm 8.1 WNW 7 9 1014.0 - 0.6 - - - - - - -
01/09:30pm 7.4 NW 7 8 1013.7 - 0.6 - - - - - - -
01/09:00pm 9.2 WSW 7 9 1013.4 - 0.6 Recent precip. - - - - - -
01/08:30pm 9.0 W 10 15 1013.2 - 0.6 - - - - - - -
01/08:00pm 8.8 W 7 8 1013.0 - 0.2 - - - - - - -
01/07:30pm 8.9 W 7 8 1012.7 - 0.2 - - - - - - -
01/07:00pm 9.4 W 8 10 1012.3 - 0.2 - - - - - - -
01/06:30pm 10.7 WSW 10 13 1012.0 - 0.2 - - - - - - -
01/06:00pm 11.3 WSW 11 14 1011.4 - 0.2 - - - - - - -
01/05:30pm 12.0 SW 12 15 1011.0 - 0.2 - - - - - - -
01/05:00pm 12.0 SW 13 17 1010.7 - 0.2 - - - - - - -
01/04:30pm 11.3 SSW 11 16 1010.5 - 0.2 - - - - - - -
01/04:00pm 12.3 WSW 12 15 1010.1 - 0.2 - - - - - - -
01/03:30pm 12.4 SW 12 16 1009.9 - 0.2 - - - - - - -
01/03:00pm 12.7 SW 12 16 1009.6 - 0.2 - - - - - - -
01/02:30pm 12.3 SW 9 11 1009.5 - 0.2 - - - - - - -
01/02:00pm 12.8 SW 13 17 1009.4 - 0.2 - - - - - - -
01/01:30pm 13.0 SW 14 17 1009.5 - 0.2 - - - - - - -
01/01:00pm 13.2 SW 14 17 1009.5 - 0.2 - - - - - - -
01/12:30pm 13.0 SW 15 17 1009.5 - 0.2 - - - - - - -
01/12:00pm 12.2 SW 13 17 1009.6 - 0.2 - - - - - - -
01/11:30am 12.2 SSW 14 17 1009.8 - 0.2 - - - - - - -
01/11:00am 11.7 WSW 9 11 1009.8 - 0.2 - - - - - - -
01/10:30am 12.4 WSW 10 13 1009.4 - 0.0 - - - - - - -
01/10:00am 12.2 WSW 10 14 1009.2 - 0.0 - - - - - - -
01/09:30am 11.6 W 9 11 1009.3 - 0.0 - - - - - - -
01/09:00am 11.3 W 7 10 1008.9 - 3.0 Recent precip. - - - - - -
01/08:30am 11.1 W 10 13 1008.7 - 3.0 - - - - - - -
01/08:00am 11.3 WNW 10 12 1008.3 - 2.8 - - - - - - -
01/07:30am 10.7 NNW 9 11 1008.0 - 2.8 - - - - - - -
01/07:00am 10.7 NNW 8 9 1007.9 - 2.8 - - - - - - -
01/06:30am 10.8 NNW 8 9 1007.7 - 2.8 - - - - - - -
01/06:00am 10.9 N 7 9 1007.6 - 2.8 Recent precip. - - - - - -
01/05:30am 10.9 WNW 9 13 1007.4 - 2.6 - - - - - - -
01/05:00am 11.4 NW 11 15 1007.3 - 1.8 - - - - - - -
01/04:30am 11.5 NW 14 16 1007.2 - 1.0 - - - - - - -
01/04:00am 11.7 NW 12 15 1007.0 - 0.4 - - - - - - -
01/03:30am 11.8 NW 13 17 1007.4 - 0.2 - - - - - - -
01/03:00am 12.1 NW 16 21 1007.7 - 0.2 Recent precip. - - - - - -
01/02:30am 12.0 NW 10 13 1007.4 - 0.0 - - - - - - -
01/02:00am 12.0 W 8 11 1007.6 - 0.0 - - - - - - -
01/01:30am 11.5 NW 5 7 1007.6 - 0.0 - - - - - - -
01/01:00am 11.6 NE 5 6 1007.0 - 0.0 - - - - - - -
01/12:30am 11.3 W 3 7 1007.9 - 0.0 - - - - - - -
01/12:00am 11.4 ENE 4 5 1007.5 - 0.0 - - - - - - -
 
Date/Time
EST
Temp

°C
Wind Pressure Rain
since 9am
mm
Weather Cloud Vis
km
Sea
Height
m
Swell
Dir
 
Speed
knots
Gust
knots
hPa Trend Height
m
Period
s
Dir
31/11:30pm 11.5 CALM 0 0 1008.1 - 0.0 - - - - - - -
31/11:00pm 12.1 CALM 0 0 1008.3 - 0.0 - - - - - - -
31/10:30pm 13.2 WSW 4 7 1008.8 - 0.0 - - - - - - -
31/10:00pm 13.5 NW 6 9 1009.1 - 0.0 - - - - - - -
31/09:30pm 13.6 W 12 17 1009.5 - 0.0 - - - - - - -
31/09:00pm 13.5 N 7 10 1009.5 - 0.0 - - - - - - -
31/08:30pm 13.8 N 8 11 1009.5 - 0.0 - - - - - - -
31/08:00pm 14.5 N 7 8 1009.5 - 0.0 - - - - - - -
31/07:30pm 15.7 N 10 12 1009.4 - 0.0 - - - - - - -
31/07:00pm 15.5 NNE 10 12 1009.4 - 0.0 - - - - - - -
31/06:30pm 15.2 N 7 9 1009.9 - 0.0 - - - - - - -
31/06:00pm 16.0 NNE 9 11 1009.9 - 0.0 - - - - - - -
31/05:30pm 16.2 NNE 8 9 1010.3 - 0.0 - - - - - - -
31/05:00pm 16.9 N 7 9 1010.5 - 0.0 - - - - - - -
31/04:30pm 17.9 N 9 11 1010.4 - 0.0 - - - - - - -
31/04:00pm 18.5 N 10 12 1010.5 - 0.0 - - - - - - -
31/03:30pm 19.0 N 11 15 1010.6 - 0.0 - - - - - - -
31/03:00pm 20.4 N 14 18 1011.0 - 0.0 - - - - - - -
31/02:30pm 19.0 N 14 17 1011.5 - 0.0 - - - - - - -
31/02:00pm 19.5 N 15 19 1011.6 - 0.0 - - - - - - -
31/01:30pm 18.4 N 14 17 1012.1 - 0.0 - - - - - - -
31/01:00pm 17.9 NNE 14 18 1012.7 - 0.0 - - - - - - -
31/12:30pm 18.6 N 16 21 1013.4 - 0.0 - - - - - - -
31/12:00pm 17.8 N 16 20 1013.8 - 0.0 - - - - - - -
31/11:30am 16.7 N 15 21 1014.3 - 0.0 - - - - - - -
31/11:00am 16.3 N 16 21 1014.5 - 0.0 - - - - - - -
31/10:30am 15.9 NNE 14 19 1015.0 - 0.0 - - - - - - -
31/10:00am 14.7 N 14 18 1015.4 - 0.0 - - - - - - -
31/09:30am 14.3 N 15 19 1015.6 - 0.0 - - - - - - -
31/09:00am 14.1 NNE 13 17 1015.8 - 0.0 - - - - - - -
31/08:30am 12.2 N 13 16 1016.1 - 0.0 - - - - - - -
31/08:00am 11.5 N 12 15 1016.3 - 0.0 - - - - - - -

Other Formats:

Comma delimited format used in spreadsheet applications
http://www.bom.gov.au/fwo/IDV60701/IDV60701.94837.axf

JavaScript Object Notation format (JSON) in row-major order
http://www.bom.gov.au/fwo/IDV60701/IDV60701.94837.json